sensor_id;sensor_type;location;lat;lon;timestamp;P1;durP1;ratioP1;P2;durP2;ratioP2
64244;SDS011;50584;29.058;-110.966;2023-09-30T00:00:25;3.97;;;2.30;;
64244;SDS011;50584;29.058;-110.966;2023-09-30T00:02:51;7.60;;;2.92;;
64244;SDS011;50584;29.058;-110.966;2023-09-30T00:05:17;6.03;;;2.47;;
64244;SDS011;50584;29.058;-110.966;2023-09-30T00:07:45;13.57;;;2.17;;
64244;SDS011;50584;29.058;-110.966;2023-09-30T00:10:11;6.22;;;2.40;;
64244;SDS011;50584;29.058;-110.966;2023-09-30T00:12:37;10.38;;;2.70;;
64244;SDS011;50584;29.058;-110.966;2023-09-30T00:15:03;4.68;;;2.20;;
64244;SDS011;50584;29.058;-110.966;2023-09-30T00:17:29;10.25;;;2.80;;
64244;SDS011;50584;29.058;-110.966;2023-09-30T00:19:55;12.13;;;2.40;;
64244;SDS011;50584;29.058;-110.966;2023-09-30T00:22:21;8.68;;;2.10;;
64244;SDS011;50584;29.058;-110.966;2023-09-30T00:24:47;12.77;;;2.53;;
64244;SDS011;50584;29.058;-110.966;2023-09-30T00:27:13;3.65;;;2.42;;
64244;SDS011;50584;29.058;-110.966;2023-09-30T00:29:39;5.75;;;2.53;;
64244;SDS011;50584;29.058;-110.966;2023-09-30T00:32:05;8.98;;;2.53;;
64244;SDS011;50584;29.058;-110.966;2023-09-30T00:34:34;2.42;;;2.22;;
64244;SDS011;50584;29.058;-110.966;2023-09-30T00:37:00;6.10;;;2.22;;
64244;SDS011;50584;29.058;-110.966;2023-09-30T00:39:25;6.47;;;2.40;;
64244;SDS011;50584;29.058;-110.966;2023-09-30T00:41:55;5.20;;;2.53;;
64244;SDS011;50584;29.058;-110.966;2023-09-30T00:44:21;23.10;;;2.65;;
64244;SDS011;50584;29.058;-110.966;2023-09-30T00:46:47;4.78;;;2.30;;
64244;SDS011;50584;29.058;-110.966;2023-09-30T00:49:13;9.23;;;2.60;;
64244;SDS011;50584;29.058;-110.966;2023-09-30T00:51:39;10.73;;;2.50;;
64244;SDS011;50584;29.058;-110.966;2023-09-30T00:54:06;13.30;;;2.60;;
64244;SDS011;50584;29.058;-110.966;2023-09-30T00:56:32;8.98;;;2.22;;
64244;SDS011;50584;29.058;-110.966;2023-09-30T00:58:58;2.65;;;2.08;;
64244;SDS011;50584;29.058;-110.966;2023-09-30T01:01:24;10.10;;;2.20;;
64244;SDS011;50584;29.058;-110.966;2023-09-30T01:03:50;9.07;;;2.30;;
64244;SDS011;50584;29.058;-110.966;2023-09-30T01:06:16;8.43;;;2.50;;
64244;SDS011;50584;29.058;-110.966;2023-09-30T01:08:42;13.65;;;2.92;;
64244;SDS011;50584;29.058;-110.966;2023-09-30T01:11:08;7.90;;;2.67;;
64244;SDS011;50584;29.058;-110.966;2023-09-30T01:13:35;13.00;;;2.60;;
64244;SDS011;50584;29.058;-110.966;2023-09-30T01:16:05;11.10;;;2.88;;
64244;SDS011;50584;29.058;-110.966;2023-09-30T01:18:31;11.80;;;2.50;;
64244;SDS011;50584;29.058;-110.966;2023-09-30T01:20:57;4.68;;;2.33;;
64244;SDS011;50584;29.058;-110.966;2023-09-30T01:23:24;10.73;;;2.88;;
64244;SDS011;50584;29.058;-110.966;2023-09-30T01:25:50;12.93;;;2.13;;
64244;SDS011;50584;29.058;-110.966;2023-09-30T01:28:16;11.68;;;2.63;;
64244;SDS011;50584;29.058;-110.966;2023-09-30T01:30:41;7.18;;;2.50;;
64244;SDS011;50584;29.058;-110.966;2023-09-30T01:33:10;6.18;;;2.42;;
64244;SDS011;50584;29.058;-110.966;2023-09-30T01:35:36;12.05;;;2.80;;
64244;SDS011;50584;29.058;-110.966;2023-09-30T01:38:01;11.82;;;2.83;;
64244;SDS011;50584;29.058;-110.966;2023-09-30T01:40:27;9.55;;;2.60;;
64244;SDS011;50584;29.058;-110.966;2023-09-30T01:42:53;20.38;;;4.20;;
64244;SDS011;50584;29.058;-110.966;2023-09-30T01:45:19;9.90;;;2.90;;
64244;SDS011;50584;29.058;-110.966;2023-09-30T01:47:45;7.05;;;2.45;;
64244;SDS011;50584;29.058;-110.966;2023-09-30T01:50:11;15.18;;;2.63;;
64244;SDS011;50584;29.058;-110.966;2023-09-30T01:52:36;12.10;;;2.88;;
64244;SDS011;50584;29.058;-110.966;2023-09-30T01:55:02;8.35;;;2.88;;
64244;SDS011;50584;29.058;-110.966;2023-09-30T01:57:28;12.95;;;2.90;;
64244;SDS011;50584;29.058;-110.966;2023-09-30T01:59:54;5.93;;;2.20;;
64244;SDS011;50584;29.058;-110.966;2023-09-30T02:02:20;6.53;;;2.40;;
64244;SDS011;50584;29.058;-110.966;2023-09-30T02:04:46;5.20;;;2.58;;
64244;SDS011;50584;29.058;-110.966;2023-09-30T02:07:12;9.10;;;2.40;;
64244;SDS011;50584;29.058;-110.966;2023-09-30T02:09:38;6.28;;;2.38;;
64244;SDS011;50584;29.058;-110.966;2023-09-30T02:12:04;6.20;;;2.28;;
64244;SDS011;50584;29.058;-110.966;2023-09-30T02:14:31;4.72;;;2.22;;
64244;SDS011;50584;29.058;-110.966;2023-09-30T02:16:57;8.48;;;2.67;;
64244;SDS011;50584;29.058;-110.966;2023-09-30T02:19:23;4.07;;;2.13;;
64244;SDS011;50584;29.058;-110.966;2023-09-30T02:21:48;11.38;;;2.53;;
64244;SDS011;50584;29.058;-110.966;2023-09-30T02:24:14;3.65;;;2.30;;
64244;SDS011;50584;29.058;-110.966;2023-09-30T02:26:40;6.18;;;2.60;;
64244;SDS011;50584;29.058;-110.966;2023-09-30T02:29:06;14.93;;;2.65;;
64244;SDS011;50584;29.058;-110.966;2023-09-30T02:31:35;12.43;;;2.50;;
64244;SDS011;50584;29.058;-110.966;2023-09-30T02:34:01;14.25;;;3.15;;
64244;SDS011;50584;29.058;-110.966;2023-09-30T02:36:28;5.85;;;2.90;;
64244;SDS011;50584;29.058;-110.966;2023-09-30T02:38:53;6.35;;;2.40;;
64244;SDS011;50584;29.058;-110.966;2023-09-30T02:41:19;10.13;;;2.72;;
64244;SDS011;50584;29.058;-110.966;2023-09-30T02:43:45;4.53;;;2.30;;
64244;SDS011;50584;29.058;-110.966;2023-09-30T02:46:11;12.60;;;2.35;;
64244;SDS011;50584;29.058;-110.966;2023-09-30T02:48:37;10.18;;;2.78;;
64244;SDS011;50584;29.058;-110.966;2023-09-30T02:51:03;5.38;;;2.47;;
64244;SDS011;50584;29.058;-110.966;2023-09-30T02:53:29;9.30;;;2.10;;
64244;SDS011;50584;29.058;-110.966;2023-09-30T02:55:55;20.17;;;2.92;;
64244;SDS011;50584;29.058;-110.966;2023-09-30T02:58:22;8.98;;;2.38;;
64244;SDS011;50584;29.058;-110.966;2023-09-30T03:00:49;6.07;;;2.33;;
64244;SDS011;50584;29.058;-110.966;2023-09-30T03:03:14;12.40;;;2.97;;
64244;SDS011;50584;29.058;-110.966;2023-09-30T03:05:40;45.75;;;3.75;;
64244;SDS011;50584;29.058;-110.966;2023-09-30T03:08:08;11.82;;;2.38;;
64244;SDS011;50584;29.058;-110.966;2023-09-30T03:10:33;11.95;;;2.85;;
64244;SDS011;50584;29.058;-110.966;2023-09-30T03:12:59;6.97;;;2.75;;
64244;SDS011;50584;29.058;-110.966;2023-09-30T03:15:28;13.23;;;2.67;;
64244;SDS011;50584;29.058;-110.966;2023-09-30T03:17:56;13.00;;;2.67;;
64244;SDS011;50584;29.058;-110.966;2023-09-30T03:20:22;17.08;;;2.83;;
64244;SDS011;50584;29.058;-110.966;2023-09-30T03:22:50;9.85;;;2.55;;
64244;SDS011;50584;29.058;-110.966;2023-09-30T03:25:17;7.35;;;2.97;;
64244;SDS011;50584;29.058;-110.966;2023-09-30T03:27:46;7.07;;;2.90;;
64244;SDS011;50584;29.058;-110.966;2023-09-30T03:30:13;8.37;;;2.90;;
64244;SDS011;50584;29.058;-110.966;2023-09-30T03:32:39;4.03;;;2.72;;
64244;SDS011;50584;29.058;-110.966;2023-09-30T03:35:05;9.60;;;3.97;;
64244;SDS011;50584;29.058;-110.966;2023-09-30T03:37:31;10.75;;;3.13;;
64244;SDS011;50584;29.058;-110.966;2023-09-30T03:39:57;10.68;;;2.63;;
64244;SDS011;50584;29.058;-110.966;2023-09-30T03:42:23;5.72;;;2.67;;
64244;SDS011;50584;29.058;-110.966;2023-09-30T03:44:49;13.75;;;3.08;;
64244;SDS011;50584;29.058;-110.966;2023-09-30T03:47:15;9.95;;;2.75;;
64244;SDS011;50584;29.058;-110.966;2023-09-30T03:49:42;10.10;;;2.55;;
64244;SDS011;50584;29.058;-110.966;2023-09-30T03:52:08;12.00;;;2.70;;
64244;SDS011;50584;29.058;-110.966;2023-09-30T03:54:34;34.50;;;4.07;;
64244;SDS011;50584;29.058;-110.966;2023-09-30T03:57:00;10.82;;;3.00;;
64244;SDS011;50584;29.058;-110.966;2023-09-30T03:59:26;5.75;;;2.80;;
64244;SDS011;50584;29.058;-110.966;2023-09-30T04:01:53;17.05;;;3.35;;
64244;SDS011;50584;29.058;-110.966;2023-09-30T04:04:19;7.45;;;3.20;;
64244;SDS011;50584;29.058;-110.966;2023-09-30T04:06:46;6.78;;;2.67;;
64244;SDS011;50584;29.058;-110.966;2023-09-30T04:09:15;14.05;;;3.20;;
64244;SDS011;50584;29.058;-110.966;2023-09-30T04:11:41;23.15;;;3.45;;
64244;SDS011;50584;29.058;-110.966;2023-09-30T04:14:08;67.28;;;4.85;;
64244;SDS011;50584;29.058;-110.966;2023-09-30T04:16:34;66.47;;;4.97;;
64244;SDS011;50584;29.058;-110.966;2023-09-30T04:18:59;71.65;;;4.95;;
64244;SDS011;50584;29.058;-110.966;2023-09-30T04:21:25;5.78;;;2.70;;
64244;SDS011;50584;29.058;-110.966;2023-09-30T04:23:53;10.60;;;2.90;;
64244;SDS011;50584;29.058;-110.966;2023-09-30T04:26:19;10.05;;;3.28;;
64244;SDS011;50584;29.058;-110.966;2023-09-30T04:28:45;11.35;;;2.90;;
64244;SDS011;50584;29.058;-110.966;2023-09-30T04:31:10;9.50;;;3.67;;
64244;SDS011;50584;29.058;-110.966;2023-09-30T04:33:39;11.80;;;3.63;;
64244;SDS011;50584;29.058;-110.966;2023-09-30T04:36:08;9.57;;;4.00;;
64244;SDS011;50584;29.058;-110.966;2023-09-30T04:38:34;11.93;;;3.92;;
64244;SDS011;50584;29.058;-110.966;2023-09-30T04:41:03;19.38;;;6.88;;
64244;SDS011;50584;29.058;-110.966;2023-09-30T04:43:29;11.88;;;4.10;;
64244;SDS011;50584;29.058;-110.966;2023-09-30T04:45:55;6.88;;;3.88;;
64244;SDS011;50584;29.058;-110.966;2023-09-30T04:48:25;8.30;;;4.22;;
64244;SDS011;50584;29.058;-110.966;2023-09-30T04:50:51;8.40;;;3.65;;
64244;SDS011;50584;29.058;-110.966;2023-09-30T04:53:17;5.70;;;3.45;;
64244;SDS011;50584;29.058;-110.966;2023-09-30T04:55:43;11.77;;;3.53;;
64244;SDS011;50584;29.058;-110.966;2023-09-30T04:58:09;11.23;;;3.20;;
64244;SDS011;50584;29.058;-110.966;2023-09-30T05:00:34;14.77;;;5.30;;
64244;SDS011;50584;29.058;-110.966;2023-09-30T05:03:00;25.08;;;7.13;;
64244;SDS011;50584;29.058;-110.966;2023-09-30T05:05:26;16.10;;;5.18;;
64244;SDS011;50584;29.058;-110.966;2023-09-30T05:07:54;17.35;;;4.82;;
64244;SDS011;50584;29.058;-110.966;2023-09-30T05:10:20;59.40;;;6.22;;
64244;SDS011;50584;29.058;-110.966;2023-09-30T05:12:46;17.10;;;3.22;;
64244;SDS011;50584;29.058;-110.966;2023-09-30T05:15:12;6.80;;;2.83;;
64244;SDS011;50584;29.058;-110.966;2023-09-30T05:17:39;13.80;;;3.40;;
64244;SDS011;50584;29.058;-110.966;2023-09-30T05:20:05;8.80;;;3.42;;
64244;SDS011;50584;29.058;-110.966;2023-09-30T05:22:33;7.55;;;2.80;;
64244;SDS011;50584;29.058;-110.966;2023-09-30T05:24:59;12.02;;;2.80;;
64244;SDS011;50584;29.058;-110.966;2023-09-30T05:27:25;5.55;;;3.08;;
64244;SDS011;50584;29.058;-110.966;2023-09-30T05:29:52;7.45;;;3.30;;
64244;SDS011;50584;29.058;-110.966;2023-09-30T05:32:18;18.02;;;3.40;;
64244;SDS011;50584;29.058;-110.966;2023-09-30T05:34:44;17.90;;;3.65;;
64244;SDS011;50584;29.058;-110.966;2023-09-30T05:37:10;11.75;;;3.75;;
64244;SDS011;50584;29.058;-110.966;2023-09-30T05:39:37;14.15;;;3.83;;
64244;SDS011;50584;29.058;-110.966;2023-09-30T05:42:03;19.55;;;5.40;;
64244;SDS011;50584;29.058;-110.966;2023-09-30T05:44:30;21.83;;;5.47;;
64244;SDS011;50584;29.058;-110.966;2023-09-30T05:46:57;27.05;;;5.32;;
64244;SDS011;50584;29.058;-110.966;2023-09-30T05:49:23;23.45;;;5.78;;
64244;SDS011;50584;29.058;-110.966;2023-09-30T05:51:49;20.92;;;8.75;;
64244;SDS011;50584;29.058;-110.966;2023-09-30T05:54:16;61.65;;;27.50;;
64244;SDS011;50584;29.058;-110.966;2023-09-30T05:56:41;48.45;;;12.40;;
64244;SDS011;50584;29.058;-110.966;2023-09-30T05:59:10;37.90;;;6.88;;
64244;SDS011;50584;29.058;-110.966;2023-09-30T06:01:36;32.70;;;6.68;;
64244;SDS011;50584;29.058;-110.966;2023-09-30T06:04:01;32.22;;;5.38;;
64244;SDS011;50584;29.058;-110.966;2023-09-30T06:06:27;20.45;;;4.35;;
64244;SDS011;50584;29.058;-110.966;2023-09-30T06:08:57;18.63;;;5.45;;
64244;SDS011;50584;29.058;-110.966;2023-09-30T06:11:23;19.60;;;4.20;;
64244;SDS011;50584;29.058;-110.966;2023-09-30T06:13:55;26.80;;;4.68;;
64244;SDS011;50584;29.058;-110.966;2023-09-30T06:16:24;22.38;;;4.70;;
64244;SDS011;50584;29.058;-110.966;2023-09-30T06:18:51;17.08;;;4.05;;
64244;SDS011;50584;29.058;-110.966;2023-09-30T06:21:17;15.18;;;3.95;;
64244;SDS011;50584;29.058;-110.966;2023-09-30T06:23:46;17.00;;;3.90;;
64244;SDS011;50584;29.058;-110.966;2023-09-30T06:26:12;21.55;;;4.30;;
64244;SDS011;50584;29.058;-110.966;2023-09-30T06:28:38;19.20;;;4.07;;
64244;SDS011;50584;29.058;-110.966;2023-09-30T06:31:07;28.02;;;4.90;;
64244;SDS011;50584;29.058;-110.966;2023-09-30T06:33:34;22.73;;;4.22;;
64244;SDS011;50584;29.058;-110.966;2023-09-30T06:36:00;7.97;;;3.90;;
64244;SDS011;50584;29.058;-110.966;2023-09-30T06:38:27;15.60;;;4.30;;
64244;SDS011;50584;29.058;-110.966;2023-09-30T06:40:53;17.05;;;4.35;;
64244;SDS011;50584;29.058;-110.966;2023-09-30T06:43:19;15.35;;;3.85;;
64244;SDS011;50584;29.058;-110.966;2023-09-30T06:45:45;14.68;;;3.28;;
64244;SDS011;50584;29.058;-110.966;2023-09-30T06:48:12;22.42;;;10.27;;
64244;SDS011;50584;29.058;-110.966;2023-09-30T06:50:47;28.02;;;15.02;;
64244;SDS011;50584;29.058;-110.966;2023-09-30T06:53:17;33.38;;;16.73;;
64244;SDS011;50584;29.058;-110.966;2023-09-30T06:55:43;18.25;;;9.15;;
64244;SDS011;50584;29.058;-110.966;2023-09-30T06:58:09;15.32;;;6.05;;
64244;SDS011;50584;29.058;-110.966;2023-09-30T07:00:36;17.17;;;5.15;;
64244;SDS011;50584;29.058;-110.966;2023-09-30T07:03:02;14.50;;;6.10;;
64244;SDS011;50584;29.058;-110.966;2023-09-30T07:05:28;14.00;;;5.53;;
64244;SDS011;50584;29.058;-110.966;2023-09-30T07:07:54;15.85;;;5.05;;
64244;SDS011;50584;29.058;-110.966;2023-09-30T07:10:20;7.82;;;4.20;;
64244;SDS011;50584;29.058;-110.966;2023-09-30T07:12:46;8.75;;;5.95;;
64244;SDS011;50584;29.058;-110.966;2023-09-30T07:15:12;12.02;;;4.80;;
64244;SDS011;50584;29.058;-110.966;2023-09-30T07:17:39;16.33;;;5.05;;
64244;SDS011;50584;29.058;-110.966;2023-09-30T07:20:05;12.52;;;3.30;;
64244;SDS011;50584;29.058;-110.966;2023-09-30T07:22:32;10.82;;;3.78;;
64244;SDS011;50584;29.058;-110.966;2023-09-30T07:24:58;11.45;;;3.03;;
64244;SDS011;50584;29.058;-110.966;2023-09-30T07:27:23;9.63;;;3.25;;
64244;SDS011;50584;29.058;-110.966;2023-09-30T07:29:49;14.25;;;2.80;;
64244;SDS011;50584;29.058;-110.966;2023-09-30T07:32:15;5.40;;;2.55;;
64244;SDS011;50584;29.058;-110.966;2023-09-30T07:34:41;12.38;;;3.55;;
64244;SDS011;50584;29.058;-110.966;2023-09-30T07:37:07;9.70;;;3.38;;
64244;SDS011;50584;29.058;-110.966;2023-09-30T07:39:33;5.43;;;3.67;;
64244;SDS011;50584;29.058;-110.966;2023-09-30T07:42:00;7.00;;;2.63;;
64244;SDS011;50584;29.058;-110.966;2023-09-30T07:44:26;4.95;;;2.63;;
64244;SDS011;50584;29.058;-110.966;2023-09-30T07:46:52;3.50;;;2.13;;
64244;SDS011;50584;29.058;-110.966;2023-09-30T07:49:18;4.63;;;2.15;;
64244;SDS011;50584;29.058;-110.966;2023-09-30T07:51:44;5.53;;;1.90;;
64244;SDS011;50584;29.058;-110.966;2023-09-30T07:54:11;6.53;;;2.28;;
64244;SDS011;50584;29.058;-110.966;2023-09-30T07:56:37;5.40;;;1.85;;
64244;SDS011;50584;29.058;-110.966;2023-09-30T07:59:04;5.57;;;2.35;;
64244;SDS011;50584;29.058;-110.966;2023-09-30T08:01:30;16.45;;;2.97;;
64244;SDS011;50584;29.058;-110.966;2023-09-30T08:03:56;6.45;;;2.42;;
64244;SDS011;50584;29.058;-110.966;2023-09-30T08:06:22;6.03;;;2.45;;
64244;SDS011;50584;29.058;-110.966;2023-09-30T08:08:48;7.03;;;2.30;;
64244;SDS011;50584;29.058;-110.966;2023-09-30T08:11:14;3.85;;;2.25;;
64244;SDS011;50584;29.058;-110.966;2023-09-30T08:13:40;6.22;;;2.13;;
64244;SDS011;50584;29.058;-110.966;2023-09-30T08:16:06;5.32;;;1.90;;
64244;SDS011;50584;29.058;-110.966;2023-09-30T08:18:32;6.13;;;2.58;;
64244;SDS011;50584;29.058;-110.966;2023-09-30T08:20:58;8.40;;;2.13;;
64244;SDS011;50584;29.058;-110.966;2023-09-30T08:23:24;6.00;;;2.13;;
64244;SDS011;50584;29.058;-110.966;2023-09-30T08:25:50;6.32;;;2.58;;
64244;SDS011;50584;29.058;-110.966;2023-09-30T08:28:16;5.68;;;2.10;;
64244;SDS011;50584;29.058;-110.966;2023-09-30T08:30:42;2.70;;;2.45;;
64244;SDS011;50584;29.058;-110.966;2023-09-30T08:33:08;5.93;;;2.40;;
64244;SDS011;50584;29.058;-110.966;2023-09-30T08:35:37;6.55;;;2.40;;
64244;SDS011;50584;29.058;-110.966;2023-09-30T08:38:03;4.97;;;2.60;;
64244;SDS011;50584;29.058;-110.966;2023-09-30T08:40:29;6.85;;;3.10;;
64244;SDS011;50584;29.058;-110.966;2023-09-30T08:42:55;9.95;;;4.82;;
64244;SDS011;50584;29.058;-110.966;2023-09-30T08:45:20;6.78;;;4.45;;
64244;SDS011;50584;29.058;-110.966;2023-09-30T08:47:46;8.48;;;3.92;;
64244;SDS011;50584;29.058;-110.966;2023-09-30T08:50:12;9.32;;;4.47;;
64244;SDS011;50584;29.058;-110.966;2023-09-30T08:52:43;5.72;;;4.20;;
64244;SDS011;50584;29.058;-110.966;2023-09-30T08:57:36;5.38;;;3.28;;
64244;SDS011;50584;29.058;-110.966;2023-09-30T09:00:04;9.15;;;3.63;;
64244;SDS011;50584;29.058;-110.966;2023-09-30T09:02:33;9.27;;;3.70;;
64244;SDS011;50584;29.058;-110.966;2023-09-30T09:05:00;7.13;;;3.30;;
64244;SDS011;50584;29.058;-110.966;2023-09-30T09:07:26;8.82;;;3.47;;
64244;SDS011;50584;29.058;-110.966;2023-09-30T09:10:05;6.65;;;3.92;;
64244;SDS011;50584;29.058;-110.966;2023-09-30T09:12:33;30.38;;;15.55;;
64244;SDS011;50584;29.058;-110.966;2023-09-30T09:14:58;23.17;;;10.73;;
64244;SDS011;50584;29.058;-110.966;2023-09-30T09:17:24;10.20;;;7.22;;
64244;SDS011;50584;29.058;-110.966;2023-09-30T09:20:05;10.35;;;5.78;;
64244;SDS011;50584;29.058;-110.966;2023-09-30T09:22:38;5.30;;;3.67;;
64244;SDS011;50584;29.058;-110.966;2023-09-30T09:25:04;11.70;;;4.60;;
64244;SDS011;50584;29.058;-110.966;2023-09-30T09:27:32;11.05;;;5.55;;
64244;SDS011;50584;29.058;-110.966;2023-09-30T09:30:07;11.95;;;4.10;;
64244;SDS011;50584;29.058;-110.966;2023-09-30T09:35:05;8.70;;;3.65;;
64244;SDS011;50584;29.058;-110.966;2023-09-30T09:37:32;6.00;;;3.20;;
64244;SDS011;50584;29.058;-110.966;2023-09-30T09:39:58;8.85;;;3.35;;
64244;SDS011;50584;29.058;-110.966;2023-09-30T09:42:28;14.00;;;2.88;;
64244;SDS011;50584;29.058;-110.966;2023-09-30T09:44:55;12.07;;;3.27;;
64244;SDS011;50584;29.058;-110.966;2023-09-30T09:47:21;5.88;;;2.90;;
64244;SDS011;50584;29.058;-110.966;2023-09-30T09:49:48;6.35;;;3.78;;
64244;SDS011;50584;29.058;-110.966;2023-09-30T09:52:14;4.82;;;3.00;;
64244;SDS011;50584;29.058;-110.966;2023-09-30T09:54:41;9.52;;;3.05;;
64244;SDS011;50584;29.058;-110.966;2023-09-30T09:57:08;3.53;;;2.58;;
64244;SDS011;50584;29.058;-110.966;2023-09-30T09:59:36;10.90;;;3.15;;
64244;SDS011;50584;29.058;-110.966;2023-09-30T10:02:03;9.38;;;3.10;;
64244;SDS011;50584;29.058;-110.966;2023-09-30T10:04:34;6.93;;;3.00;;
64244;SDS011;50584;29.058;-110.966;2023-09-30T10:07:00;9.18;;;3.38;;
64244;SDS011;50584;29.058;-110.966;2023-09-30T10:09:26;9.82;;;3.38;;
64244;SDS011;50584;29.058;-110.966;2023-09-30T10:11:59;7.82;;;3.75;;
64244;SDS011;50584;29.058;-110.966;2023-09-30T10:14:32;12.73;;;3.83;;
64244;SDS011;50584;29.058;-110.966;2023-09-30T10:16:58;9.38;;;3.10;;
64244;SDS011;50584;29.058;-110.966;2023-09-30T10:19:24;4.47;;;3.42;;
64244;SDS011;50584;29.058;-110.966;2023-09-30T10:24:34;4.38;;;2.90;;
64244;SDS011;50584;29.058;-110.966;2023-09-30T10:29:44;4.30;;;3.00;;
64244;SDS011;50584;29.058;-110.966;2023-09-30T10:32:10;7.35;;;4.18;;
64244;SDS011;50584;29.058;-110.966;2023-09-30T10:34:36;14.48;;;3.40;;
64244;SDS011;50584;29.058;-110.966;2023-09-30T10:37:35;7.43;;;3.58;;
64244;SDS011;50584;29.058;-110.966;2023-09-30T10:39:55;5.68;;;3.33;;
64244;SDS011;50584;29.058;-110.966;2023-09-30T10:45:05;10.25;;;3.38;;
64244;SDS011;50584;29.058;-110.966;2023-09-30T10:49:58;9.73;;;3.05;;
64244;SDS011;50584;29.058;-110.966;2023-09-30T10:52:24;14.23;;;3.38;;
64244;SDS011;50584;29.058;-110.966;2023-09-30T10:54:51;13.57;;;3.45;;
64244;SDS011;50584;29.058;-110.966;2023-09-30T10:57:26;20.88;;;4.05;;
64244;SDS011;50584;29.058;-110.966;2023-09-30T11:00:10;15.32;;;3.60;;
64244;SDS011;50584;29.058;-110.966;2023-09-30T11:02:49;5.35;;;2.78;;
64244;SDS011;50584;29.058;-110.966;2023-09-30T11:05:16;14.25;;;3.65;;
64244;SDS011;50584;29.058;-110.966;2023-09-30T11:07:43;7.10;;;3.00;;
64244;SDS011;50584;29.058;-110.966;2023-09-30T11:10:14;14.80;;;3.67;;
64244;SDS011;50584;29.058;-110.966;2023-09-30T11:12:52;14.68;;;3.20;;
64244;SDS011;50584;29.058;-110.966;2023-09-30T11:15:18;8.32;;;3.22;;
64244;SDS011;50584;29.058;-110.966;2023-09-30T11:17:44;23.60;;;3.78;;
64244;SDS011;50584;29.058;-110.966;2023-09-30T11:20:10;11.98;;;3.75;;
64244;SDS011;50584;29.058;-110.966;2023-09-30T11:22:36;7.93;;;3.20;;
64244;SDS011;50584;29.058;-110.966;2023-09-30T11:25:02;15.32;;;4.03;;
64244;SDS011;50584;29.058;-110.966;2023-09-30T11:27:28;11.82;;;3.35;;
64244;SDS011;50584;29.058;-110.966;2023-09-30T11:30:10;14.35;;;3.28;;
64244;SDS011;50584;29.058;-110.966;2023-09-30T11:32:36;23.50;;;3.75;;
64244;SDS011;50584;29.058;-110.966;2023-09-30T11:35:02;13.38;;;2.92;;
64244;SDS011;50584;29.058;-110.966;2023-09-30T11:37:31;13.13;;;2.80;;
64244;SDS011;50584;29.058;-110.966;2023-09-30T11:40:16;11.35;;;3.72;;
64244;SDS011;50584;29.058;-110.966;2023-09-30T11:42:42;9.65;;;3.05;;
64244;SDS011;50584;29.058;-110.966;2023-09-30T11:45:28;4.43;;;3.00;;
64244;SDS011;50584;29.058;-110.966;2023-09-30T11:47:53;8.68;;;3.30;;
64244;SDS011;50584;29.058;-110.966;2023-09-30T11:50:19;13.93;;;3.38;;
64244;SDS011;50584;29.058;-110.966;2023-09-30T11:52:45;10.95;;;3.88;;
64244;SDS011;50584;29.058;-110.966;2023-09-30T11:55:13;9.23;;;3.22;;
64244;SDS011;50584;29.058;-110.966;2023-09-30T11:57:41;14.43;;;3.20;;
64244;SDS011;50584;29.058;-110.966;2023-09-30T12:00:07;10.00;;;3.20;;
64244;SDS011;50584;29.058;-110.966;2023-09-30T12:02:38;18.60;;;3.83;;
64244;SDS011;50584;29.058;-110.966;2023-09-30T12:05:05;16.08;;;3.75;;
64244;SDS011;50584;29.058;-110.966;2023-09-30T12:07:37;8.05;;;3.30;;
64244;SDS011;50584;29.058;-110.966;2023-09-30T12:10:03;13.50;;;2.92;;
64244;SDS011;50584;29.058;-110.966;2023-09-30T12:12:29;11.68;;;3.38;;
64244;SDS011;50584;29.058;-110.966;2023-09-30T12:14:55;17.90;;;4.07;;
64244;SDS011;50584;29.058;-110.966;2023-09-30T12:17:20;11.63;;;3.47;;
64244;SDS011;50584;29.058;-110.966;2023-09-30T12:19:47;25.75;;;4.28;;
64244;SDS011;50584;29.058;-110.966;2023-09-30T12:22:13;12.55;;;3.92;;
64244;SDS011;50584;29.058;-110.966;2023-09-30T12:24:39;28.25;;;4.88;;
64244;SDS011;50584;29.058;-110.966;2023-09-30T12:27:05;19.60;;;3.75;;
64244;SDS011;50584;29.058;-110.966;2023-09-30T12:29:31;17.17;;;3.75;;
64244;SDS011;50584;29.058;-110.966;2023-09-30T12:31:57;9.55;;;3.70;;
64244;SDS011;50584;29.058;-110.966;2023-09-30T12:34:23;17.55;;;4.00;;
64244;SDS011;50584;29.058;-110.966;2023-09-30T12:36:51;14.75;;;4.15;;
64244;SDS011;50584;29.058;-110.966;2023-09-30T12:39:16;25.33;;;4.60;;
64244;SDS011;50584;29.058;-110.966;2023-09-30T12:41:49;25.50;;;4.25;;
64244;SDS011;50584;29.058;-110.966;2023-09-30T12:44:14;32.50;;;4.38;;
64244;SDS011;50584;29.058;-110.966;2023-09-30T12:46:40;20.17;;;5.95;;
64244;SDS011;50584;29.058;-110.966;2023-09-30T12:49:06;18.77;;;3.97;;
64244;SDS011;50584;29.058;-110.966;2023-09-30T12:51:33;20.55;;;4.45;;
64244;SDS011;50584;29.058;-110.966;2023-09-30T12:53:59;20.55;;;3.90;;
64244;SDS011;50584;29.058;-110.966;2023-09-30T12:56:26;25.33;;;3.90;;
64244;SDS011;50584;29.058;-110.966;2023-09-30T12:58:51;23.48;;;4.00;;
64244;SDS011;50584;29.058;-110.966;2023-09-30T13:01:19;28.42;;;4.18;;
64244;SDS011;50584;29.058;-110.966;2023-09-30T13:03:45;15.35;;;4.10;;
64244;SDS011;50584;29.058;-110.966;2023-09-30T13:06:11;10.63;;;3.60;;
64244;SDS011;50584;29.058;-110.966;2023-09-30T13:08:37;15.77;;;4.30;;
64244;SDS011;50584;29.058;-110.966;2023-09-30T13:11:04;8.68;;;3.85;;
64244;SDS011;50584;29.058;-110.966;2023-09-30T13:13:30;13.73;;;3.42;;
64244;SDS011;50584;29.058;-110.966;2023-09-30T13:16:02;17.83;;;4.25;;
64244;SDS011;50584;29.058;-110.966;2023-09-30T13:18:27;15.57;;;3.75;;
64244;SDS011;50584;29.058;-110.966;2023-09-30T13:20:53;36.28;;;5.18;;
64244;SDS011;50584;29.058;-110.966;2023-09-30T13:23:20;65.20;;;6.13;;
64244;SDS011;50584;29.058;-110.966;2023-09-30T13:25:46;103.50;;;10.23;;
64244;SDS011;50584;29.058;-110.966;2023-09-30T13:28:12;131.90;;;7.72;;
64244;SDS011;50584;29.058;-110.966;2023-09-30T13:30:38;70.68;;;5.80;;
64244;SDS011;50584;29.058;-110.966;2023-09-30T13:33:04;30.52;;;5.38;;
64244;SDS011;50584;29.058;-110.966;2023-09-30T13:35:30;18.33;;;4.72;;
64244;SDS011;50584;29.058;-110.966;2023-09-30T13:37:56;38.75;;;5.68;;
64244;SDS011;50584;29.058;-110.966;2023-09-30T13:40:22;23.42;;;4.22;;
64244;SDS011;50584;29.058;-110.966;2023-09-30T13:42:48;22.80;;;4.90;;
64244;SDS011;50584;29.058;-110.966;2023-09-30T13:45:14;27.65;;;4.53;;
64244;SDS011;50584;29.058;-110.966;2023-09-30T13:47:42;25.67;;;4.53;;
64244;SDS011;50584;29.058;-110.966;2023-09-30T13:50:08;18.98;;;5.07;;
64244;SDS011;50584;29.058;-110.966;2023-09-30T13:52:34;29.05;;;4.72;;
64244;SDS011;50584;29.058;-110.966;2023-09-30T13:55:00;13.75;;;3.90;;
64244;SDS011;50584;29.058;-110.966;2023-09-30T13:57:27;14.77;;;4.00;;
64244;SDS011;50584;29.058;-110.966;2023-09-30T13:59:53;23.65;;;4.20;;
64244;SDS011;50584;29.058;-110.966;2023-09-30T14:02:19;21.38;;;4.10;;
64244;SDS011;50584;29.058;-110.966;2023-09-30T14:04:45;16.98;;;4.28;;
64244;SDS011;50584;29.058;-110.966;2023-09-30T14:07:11;10.27;;;3.90;;
64244;SDS011;50584;29.058;-110.966;2023-09-30T14:09:36;15.52;;;3.75;;
64244;SDS011;50584;29.058;-110.966;2023-09-30T14:12:03;11.85;;;4.00;;
64244;SDS011;50584;29.058;-110.966;2023-09-30T14:14:33;13.32;;;4.07;;